createdAt,value
2022-09-03T00:53:30.907Z,17.51
2022-09-03T00:56:12.795Z,17.52
2022-09-03T00:58:50.874Z,17.56
2022-09-03T01:01:28.598Z,17.51
2022-09-03T01:04:07.774Z,17.50
2022-09-03T01:06:54.442Z,17.51
2022-09-03T01:09:39.443Z,17.48
2022-09-03T01:12:33.364Z,17.48
2022-09-03T01:15:08.295Z,17.38
2022-09-03T01:17:45.090Z,17.36
2022-09-03T01:20:24.512Z,17.36
2022-09-03T01:23:15.423Z,17.41
2022-09-03T01:25:51.199Z,17.48
2022-09-03T01:28:32.259Z,17.41
2022-09-03T01:31:11.975Z,17.42
2022-09-03T01:33:42.333Z,17.45
2022-09-03T01:36:15.814Z,17.39
2022-09-03T01:38:48.402Z,17.31
2022-09-03T01:41:41.662Z,17.32
2022-09-03T01:44:16.835Z,17.45
2022-09-03T01:46:46.203Z,17.40
2022-09-03T01:49:22.783Z,17.44
2022-09-03T01:51:58.230Z,17.42
2022-09-03T01:54:52.273Z,17.35
2022-09-03T01:57:37.422Z,17.33
2022-09-03T02:00:11.638Z,17.33
2022-09-03T02:02:41.066Z,17.28
2022-09-03T02:05:12.352Z,17.27
2022-09-03T02:07:41.903Z,17.36
2022-09-03T02:10:12.920Z,17.35
2022-09-03T02:12:42.172Z,17.34
2022-09-03T02:15:14.989Z,17.30
2022-09-03T02:17:44.423Z,17.30
2022-09-03T02:20:13.970Z,17.46
2022-09-03T02:22:41.751Z,17.41
2022-09-03T02:25:10.987Z,17.42
2022-09-03T02:27:39.151Z,17.38
2022-09-03T02:30:08.108Z,17.39
2022-09-03T02:32:37.044Z,17.41
2022-09-03T02:35:04.832Z,17.37
2022-09-03T02:37:32.377Z,17.34
2022-09-03T02:40:00.065Z,17.32
2022-09-03T02:42:27.683Z,17.31
2022-09-03T02:44:58.735Z,17.39
2022-09-03T02:47:30.857Z,17.37
2022-09-03T02:49:59.744Z,17.34
2022-09-03T02:52:27.324Z,17.39
2022-09-03T02:54:54.933Z,17.49
2022-09-03T02:57:27.506Z,17.48
2022-09-03T02:59:55.491Z,17.41
2022-09-03T03:02:23.078Z,17.36
2022-09-03T03:04:50.818Z,17.38
2022-09-03T03:07:19.705Z,17.47
2022-09-03T03:09:47.182Z,17.37
2022-09-03T03:12:17.220Z,17.37
2022-09-03T03:14:44.715Z,17.32
2022-09-03T03:17:12.242Z,17.37
2022-09-03T03:19:39.724Z,17.39
2022-09-03T03:22:07.291Z,17.30
2022-09-03T03:24:36.826Z,17.32
2022-09-03T03:27:07.191Z,17.29
2022-09-03T03:29:35.054Z,17.25
2022-09-03T03:32:03.100Z,17.30
2022-09-03T03:34:30.553Z,17.30
2022-09-03T03:36:58.092Z,17.38
2022-09-03T03:39:25.645Z,17.37
2022-09-03T03:41:54.470Z,17.35
2022-09-03T03:44:21.969Z,17.31
2022-09-03T03:46:49.585Z,17.33
2022-09-03T03:49:17.043Z,17.37
2022-09-03T03:51:44.575Z,17.32
2022-09-03T03:54:12.036Z,17.32
2022-09-03T03:56:45.064Z,17.33
2022-09-03T03:59:24.177Z,17.29
2022-09-03T04:01:51.770Z,17.42
2022-09-03T04:04:19.298Z,17.37
2022-09-03T04:06:46.791Z,17.37
2022-09-03T04:09:14.287Z,17.33
2022-09-03T04:11:41.783Z,17.36
2022-09-03T04:14:09.285Z,17.27
2022-09-03T04:16:38.179Z,17.26
2022-09-03T04:19:05.664Z,17.20
2022-09-03T04:21:33.168Z,17.25
2022-09-03T04:24:00.719Z,17.25
2022-09-03T04:26:31.837Z,17.28
2022-09-03T04:29:00.983Z,17.29
2022-09-03T04:31:29.517Z,17.34
2022-09-03T04:33:59.548Z,17.34
2022-09-03T04:36:28.756Z,17.22
2022-09-03T04:38:58.965Z,17.33
2022-09-03T04:41:27.756Z,17.34
2022-09-03T04:43:56.837Z,17.37
2022-09-03T04:46:26.338Z,17.34
2022-09-03T04:48:56.965Z,17.31
2022-09-03T04:51:27.836Z,17.23
2022-09-03T04:53:57.572Z,17.18
2022-09-03T04:56:26.500Z,17.31
2022-09-03T04:58:56.133Z,17.31
2022-09-03T05:01:25.058Z,17.31
2022-09-03T05:03:52.732Z,17.32
2022-09-03T05:06:20.618Z,17.31
2022-09-03T05:08:50.306Z,17.29
2022-09-03T05:11:18.632Z,17.37
2022-09-03T05:13:48.845Z,17.38
2022-09-03T05:16:16.758Z,17.36
2022-09-03T05:18:45.050Z,17.44
2022-09-03T05:21:13.437Z,17.48
2022-09-03T05:23:42.626Z,17.44
2022-09-03T05:26:14.415Z,17.47
2022-09-03T05:28:43.090Z,17.50
2022-09-03T05:31:12.242Z,17.49
2022-09-03T05:33:42.087Z,17.63
2022-09-03T05:36:11.372Z,17.70
2022-09-03T05:38:39.071Z,17.73
2022-09-03T05:41:08.758Z,17.77
2022-09-03T05:43:37.931Z,17.76
2022-09-03T05:46:07.009Z,17.89
2022-09-03T05:48:36.151Z,17.94
2022-09-03T05:51:04.862Z,17.95
2022-09-03T05:53:34.666Z,17.88
2022-09-03T05:56:03.472Z,17.81
2022-09-03T05:58:32.130Z,17.88
2022-09-03T06:01:00.997Z,17.97
2022-09-03T06:03:28.639Z,17.92
2022-09-03T06:05:56.355Z,17.81
2022-09-03T06:08:23.843Z,17.62
2022-09-03T06:10:51.659Z,17.78
2022-09-03T06:13:19.171Z,17.65
2022-09-03T06:15:46.699Z,17.61
2022-09-03T06:18:15.543Z,17.74
2022-09-03T06:20:43.028Z,17.77
2022-09-03T06:23:30.105Z,17.72
2022-09-03T06:36:31.846Z,17.93
2022-09-03T06:53:07.824Z,17.85
2022-09-03T06:56:21.729Z,17.98
2022-09-03T06:59:12.452Z,17.76
2022-09-03T07:02:21.137Z,17.77
2022-09-03T07:05:01.772Z,17.72
2022-09-03T07:08:36.677Z,17.78
2022-09-03T07:15:32.396Z,17.96
2022-09-03T07:18:14.622Z,17.91
2022-09-03T07:21:39.495Z,17.98
2022-09-03T07:25:07.612Z,18.14
2022-09-03T07:28:05.325Z,18.20
2022-09-03T07:30:37.222Z,18.30
2022-09-03T07:33:33.660Z,18.13
2022-09-03T07:36:39.624Z,18.09
2022-09-03T07:39:25.043Z,18.12
2022-09-03T07:42:17.363Z,18.14
2022-09-03T07:44:46.265Z,18.15
2022-09-03T07:47:14.973Z,18.19
2022-09-03T07:49:43.653Z,18.18
2022-09-03T07:52:16.335Z,18.16
2022-09-03T07:54:45.854Z,18.03
2022-09-03T07:57:13.328Z,18.09
2022-09-03T07:59:40.894Z,18.05
2022-09-03T08:02:10.173Z,17.94
2022-09-03T08:04:38.536Z,17.97
2022-09-03T08:07:06.077Z,17.89
2022-09-03T08:09:33.949Z,17.94
2022-09-03T08:12:01.408Z,17.83
2022-09-03T08:14:30.329Z,17.80
2022-09-03T08:16:59.931Z,17.61
2022-09-03T08:19:28.822Z,17.69
2022-09-03T08:21:56.342Z,17.68
2022-09-03T08:24:26.215Z,17.92
2022-09-03T08:26:53.694Z,17.95
2022-09-03T08:29:21.973Z,17.93
2022-09-03T08:31:49.873Z,18.10
2022-09-03T08:34:18.111Z,18.16
2022-09-03T08:36:47.956Z,18.37
2022-09-03T08:39:15.484Z,18.20
2022-09-03T08:42:08.308Z,18.13
2022-09-03T08:44:41.996Z,18.08
2022-09-03T08:47:12.488Z,18.00
2022-09-03T08:49:45.728Z,17.93
2022-09-03T08:52:23.007Z,17.99
2022-09-03T08:54:51.931Z,18.29
2022-09-03T08:57:20.759Z,18.32
2022-09-03T08:59:48.731Z,18.32
2022-09-03T09:02:28.049Z,18.58
2022-09-03T09:05:01.145Z,18.66
2022-09-03T09:07:33.777Z,18.62
2022-09-03T09:10:05.067Z,18.53
2022-09-03T09:12:45.706Z,18.69
2022-09-03T09:15:20.938Z,18.89
2022-09-03T09:17:55.017Z,18.77
2022-09-03T09:20:28.200Z,19.00
2022-09-03T09:22:59.491Z,18.86
2022-09-03T09:25:27.250Z,18.65
2022-09-03T09:27:59.874Z,18.78
2022-09-03T09:30:27.850Z,18.69
2022-09-03T09:32:55.958Z,18.92
2022-09-03T09:35:24.007Z,19.09
2022-09-03T09:37:52.615Z,19.18
2022-09-03T09:40:33.105Z,19.29
2022-09-03T09:43:07.888Z,19.21
2022-09-03T09:45:35.550Z,19.23
2022-09-03T09:48:04.094Z,19.10
2022-09-03T09:50:31.657Z,19.15
2022-09-03T09:53:05.297Z,19.28
2022-09-03T09:55:34.771Z,19.23
2022-09-03T09:58:14.299Z,19.07
2022-09-03T10:00:42.808Z,19.09
2022-09-03T10:03:13.545Z,19.24
2022-09-03T10:05:41.524Z,19.57
2022-09-03T10:08:21.993Z,19.44
2022-09-03T10:10:52.155Z,19.57
2022-09-03T10:13:21.325Z,19.71
2022-09-03T10:15:52.039Z,19.72
2022-09-03T10:18:28.629Z,19.82
2022-09-03T10:21:03.922Z,19.75
2022-09-03T10:23:34.636Z,19.85
2022-09-03T10:26:07.707Z,19.74
2022-09-03T10:28:41.164Z,19.93
2022-09-03T10:31:44.287Z,20.05
2022-09-03T10:34:18.577Z,19.95
2022-09-03T10:36:52.931Z,19.75
2022-09-03T10:39:23.985Z,20.05
2022-09-03T10:42:06.737Z,20.14
2022-09-03T10:44:49.345Z,20.23
2022-09-03T10:47:28.136Z,20.25
2022-09-03T10:50:01.622Z,20.54
2022-09-03T10:52:33.891Z,20.42
2022-09-03T10:55:20.508Z,20.70
2022-09-03T10:57:55.930Z,21.01
2022-09-03T11:00:23.796Z,21.01
2022-09-03T11:03:22.464Z,21.01
2022-09-03T11:05:58.146Z,21.08
2022-09-03T11:08:29.305Z,21.36
2022-09-03T11:10:58.675Z,21.46
2022-09-03T11:13:31.004Z,21.43
2022-09-03T11:16:01.490Z,21.62
2022-09-03T11:18:33.812Z,21.67
2022-09-03T11:21:07.676Z,21.90
2022-09-03T11:23:42.526Z,21.69
2022-09-03T11:26:14.645Z,21.62
2022-09-03T11:28:49.444Z,21.70
2022-09-03T11:31:23.861Z,21.79
2022-09-03T11:33:54.706Z,21.93
2022-09-03T11:36:30.795Z,21.84
2022-09-03T11:38:59.073Z,21.97
2022-09-03T11:41:28.169Z,22.38
2022-09-03T11:44:01.198Z,22.57
2022-09-03T11:46:32.040Z,22.88
2022-09-03T11:49:12.839Z,22.79
2022-09-03T11:51:44.973Z,22.83
2022-09-03T11:54:26.616Z,22.68
2022-09-03T11:57:10.322Z,22.44
2022-09-03T11:59:39.627Z,22.60
2022-09-03T12:02:17.826Z,22.57
2022-09-03T12:04:48.998Z,22.62
2022-09-03T12:07:27.948Z,22.54
2022-09-03T12:10:13.719Z,22.46
2022-09-03T12:12:52.168Z,22.28
2022-09-03T12:15:31.964Z,22.23
2022-09-03T12:18:22.859Z,22.14
2022-09-03T12:21:02.243Z,22.01
2022-09-03T12:23:31.643Z,22.03
2022-09-03T12:26:01.180Z,21.98
2022-09-03T12:28:31.030Z,21.94
2022-09-03T12:31:21.455Z,22.03
2022-09-03T12:33:51.404Z,21.93
2022-09-03T12:36:19.150Z,22.02
2022-09-03T12:39:10.489Z,22.11
2022-09-03T12:41:35.756Z,22.19
2022-09-03T12:44:04.348Z,22.46
2022-09-03T12:46:34.912Z,22.50
2022-09-03T12:51:57.433Z,22.89
2022-09-03T12:54:27.030Z,23.03
2022-09-03T12:56:57.760Z,22.97
2022-09-03T12:59:28.371Z,22.99
2022-09-03T13:02:01.048Z,22.66
2022-09-03T13:04:30.701Z,22.94
2022-09-03T13:07:03.621Z,23.03
2022-09-03T13:09:33.360Z,23.10
2022-09-03T13:12:04.784Z,23.04
2022-09-03T13:14:43.771Z,22.96
2022-09-03T13:17:21.288Z,23.11
2022-09-03T13:20:02.477Z,23.17
2022-09-03T13:22:34.954Z,23.12
2022-09-03T13:25:14.673Z,23.15
2022-09-03T13:27:47.117Z,22.97
2022-09-03T13:30:17.989Z,23.06
2022-09-03T13:32:54.496Z,23.04
2022-09-03T13:35:29.446Z,23.04
2022-09-03T13:38:01.909Z,22.96
2022-09-03T13:40:36.633Z,23.04
2022-09-03T13:43:07.501Z,23.19
2022-09-03T13:45:40.023Z,23.38
2022-09-03T13:48:33.668Z,23.53
2022-09-03T13:51:07.853Z,23.67
2022-09-03T13:53:46.089Z,23.45
2022-09-03T13:56:36.274Z,23.67
2022-09-03T13:59:08.633Z,23.57
2022-09-03T14:01:47.108Z,23.68
2022-09-03T14:04:22.943Z,23.65
2022-09-03T14:06:55.884Z,23.74
2022-09-03T14:09:35.175Z,23.86
2022-09-03T14:12:14.563Z,23.70
2022-09-03T14:14:50.351Z,23.73
2022-09-03T14:17:24.721Z,23.59
2022-09-03T14:20:01.821Z,23.77
2022-09-03T14:22:35.923Z,24.02
2022-09-03T14:25:10.984Z,23.71
2022-09-03T14:27:39.232Z,23.49
2022-09-03T14:30:09.861Z,23.31
2022-09-03T14:32:47.456Z,23.24
2022-09-03T14:35:24.347Z,23.30
2022-09-03T14:38:31.055Z,23.56
2022-09-03T14:41:07.429Z,23.71
2022-09-03T14:44:18.192Z,23.61
2022-09-03T14:46:59.902Z,23.79
2022-09-03T14:50:09.894Z,24.01
2022-09-03T14:52:53.049Z,23.86
2022-09-03T14:55:32.649Z,23.92
2022-09-03T14:58:33.753Z,24.07
2022-09-03T15:01:06.462Z,24.09
2022-09-03T15:04:10.636Z,24.35
2022-09-03T15:07:33.966Z,24.38
2022-09-03T15:09:48.872Z,24.41
2022-09-03T15:12:26.765Z,24.25
2022-09-03T15:15:04.408Z,24.08
2022-09-03T15:17:59.844Z,24.19
2022-09-03T15:20:35.671Z,24.29
2022-09-03T15:23:24.535Z,24.49
2022-09-03T15:26:42.803Z,24.52
2022-09-03T15:29:37.077Z,24.41
2022-09-03T15:32:13.922Z,24.32
2022-09-03T15:34:56.562Z,24.10
2022-09-03T15:37:27.073Z,24.25
2022-09-03T15:40:03.193Z,24.09
2022-09-03T15:42:32.181Z,23.77
2022-09-03T15:45:05.652Z,23.63
2022-09-03T15:47:51.403Z,23.68
2022-09-03T15:50:30.670Z,23.60
2022-09-03T15:53:04.578Z,23.55
2022-09-03T15:55:38.796Z,23.55
2022-09-03T15:58:14.438Z,23.58
2022-09-03T16:00:57.269Z,23.55
2022-09-03T16:03:39.319Z,23.43
2022-09-03T16:06:18.570Z,23.55
2022-09-03T16:08:54.539Z,23.50
2022-09-03T16:11:32.574Z,23.32
2022-09-03T16:14:07.964Z,23.30
2022-09-03T16:16:51.099Z,23.38
2022-09-03T16:19:32.138Z,23.47
2022-09-03T16:22:02.525Z,23.30
2022-09-03T16:24:35.712Z,23.26
2022-09-03T16:27:09.689Z,23.21
2022-09-03T16:29:41.858Z,23.14
2022-09-03T16:33:01.146Z,23.12
2022-09-03T16:35:39.452Z,23.12
2022-09-03T16:38:22.741Z,23.14
2022-09-03T16:40:54.569Z,23.09
2022-09-03T16:43:40.761Z,23.05
2022-09-03T16:46:21.999Z,23.04
2022-09-03T16:48:57.850Z,22.95
2022-09-03T16:51:28.976Z,22.89
2022-09-03T16:54:12.546Z,22.86
2022-09-03T16:56:48.364Z,22.71
2022-09-03T16:59:30.396Z,22.71
2022-09-03T17:02:30.144Z,22.65
2022-09-03T17:05:12.497Z,22.38
2022-09-03T17:07:58.070Z,22.13
2022-09-03T17:10:33.465Z,21.80
2022-09-03T17:13:12.247Z,21.59
2022-09-03T17:15:42.640Z,21.56
2022-09-03T17:18:31.658Z,21.40
2022-09-03T17:21:09.949Z,21.32
2022-09-03T17:23:52.934Z,21.10
2022-09-03T17:26:26.887Z,20.84
2022-09-03T17:29:06.418Z,20.94
2022-09-03T17:31:42.543Z,20.88
2022-09-03T17:34:16.269Z,20.82
2022-09-03T17:36:56.602Z,21.02
2022-09-03T17:39:54.887Z,20.95
2022-09-03T17:42:30.278Z,20.66
2022-09-03T17:45:12.846Z,20.57
2022-09-03T17:48:11.163Z,20.55
2022-09-03T17:50:49.645Z,20.34
2022-09-03T17:53:41.444Z,20.44
2022-09-03T17:56:27.845Z,20.56
2022-09-03T18:02:31.877Z,20.45
2022-09-03T18:05:27.118Z,20.42
2022-09-03T18:08:01.268Z,20.31
2022-09-03T18:10:33.854Z,20.25
2022-09-03T18:13:08.385Z,20.22
2022-09-03T18:15:38.876Z,20.14
2022-09-03T18:18:09.885Z,19.94
2022-09-03T18:21:21.473Z,19.83
2022-09-03T18:24:13.035Z,19.74
2022-09-03T18:27:02.817Z,19.59
2022-09-03T18:29:55.795Z,19.57
2022-09-03T18:32:49.827Z,19.64
2022-09-03T18:35:37.629Z,19.65
2022-09-03T18:38:23.169Z,19.69
2022-09-03T18:41:14.311Z,19.71
2022-09-03T18:44:07.130Z,19.66
2022-09-03T18:50:13.980Z,19.62
2022-09-03T18:53:03.300Z,19.59
2022-09-03T18:55:57.235Z,19.67
2022-09-03T18:58:52.118Z,19.60
2022-09-03T19:01:47.426Z,19.39
2022-09-03T19:04:39.807Z,19.27
2022-09-03T19:07:28.041Z,19.10
2022-09-03T19:10:23.428Z,19.08
2022-09-03T19:13:31.162Z,18.94
2022-09-03T19:16:22.613Z,18.95
2022-09-03T19:19:26.018Z,18.98
2022-09-03T19:22:14.828Z,19.03
2022-09-03T19:25:05.061Z,18.94
2022-09-03T19:27:59.835Z,18.77
2022-09-03T19:30:50.390Z,18.72
2022-09-03T19:33:45.273Z,18.56
2022-09-03T19:36:35.483Z,18.44
2022-09-03T19:39:30.568Z,18.38
2022-09-03T19:42:21.071Z,18.56
2022-09-03T19:45:18.240Z,18.64
2022-09-03T19:48:10.092Z,18.63
2022-09-03T19:51:11.845Z,18.78
2022-09-03T19:53:57.266Z,18.89
2022-09-03T19:56:46.198Z,18.64
2022-09-03T19:59:42.639Z,18.33
2022-09-03T20:02:28.615Z,18.64
2022-09-03T20:05:18.421Z,18.53
2022-09-03T20:08:07.888Z,18.60
2022-09-03T20:10:36.488Z,18.47
2022-09-03T20:13:09.638Z,18.36
2022-09-03T20:15:49.360Z,18.25
2022-09-03T20:18:25.701Z,18.29
2022-09-03T20:21:11.587Z,18.26
2022-09-03T20:23:47.173Z,18.17
2022-09-03T20:26:24.437Z,18.14
2022-09-03T20:29:28.243Z,18.13
2022-09-03T20:32:02.561Z,18.15
2022-09-03T20:34:45.115Z,18.17
2022-09-03T20:37:27.561Z,18.11
2022-09-03T20:40:16.147Z,18.05
2022-09-03T20:43:03.372Z,17.98
2022-09-03T20:45:45.104Z,17.93
2022-09-03T20:48:23.510Z,17.65
2022-09-03T20:51:00.908Z,17.51
2022-09-03T20:53:56.152Z,17.31
2022-09-03T20:56:32.477Z,17.33
2022-09-03T20:59:06.336Z,17.41
2022-09-03T21:01:41.431Z,17.57
2022-09-03T21:04:22.583Z,17.52
2022-09-03T21:07:03.389Z,17.47
2022-09-03T21:09:38.766Z,17.48
2022-09-03T21:12:21.670Z,17.40
2022-09-03T21:14:53.440Z,17.44
2022-09-03T21:17:43.280Z,17.44
2022-09-03T21:20:23.634Z,17.42
2022-09-03T21:23:13.093Z,17.37
2022-09-03T21:25:49.025Z,17.39
2022-09-03T21:28:28.541Z,17.29
2022-09-03T21:31:09.131Z,17.16
2022-09-03T21:33:42.545Z,17.36
2022-09-03T21:36:18.897Z,17.28
2022-09-03T21:38:59.690Z,17.25
2022-09-03T21:41:32.441Z,17.17
2022-09-03T21:44:10.606Z,17.21
2022-09-03T21:46:48.903Z,17.16
2022-09-03T21:49:22.928Z,17.04
2022-09-03T21:51:57.907Z,16.98
2022-09-03T21:54:33.654Z,16.84
2022-09-03T21:57:22.501Z,16.81
2022-09-03T22:00:26.187Z,16.85
2022-09-03T22:02:59.742Z,16.77
2022-09-03T22:05:34.369Z,16.61
2022-09-03T22:08:18.180Z,16.68
2022-09-03T22:10:58.666Z,16.69
2022-09-03T22:13:31.315Z,16.67
2022-09-03T22:16:08.697Z,16.64
2022-09-03T22:18:40.662Z,16.57
2022-09-03T22:21:18.759Z,16.55
2022-09-03T22:24:08.250Z,16.55
2022-09-03T22:26:48.642Z,16.55
2022-09-03T22:29:25.232Z,16.58
2022-09-03T22:32:01.874Z,16.54
2022-09-03T22:35:07.729Z,16.62
2022-09-03T22:37:47.312Z,16.42
2022-09-03T22:40:34.891Z,16.30
2022-09-03T22:43:23.619Z,16.21
2022-09-03T22:46:09.564Z,16.18
2022-09-03T22:49:07.460Z,16.25
2022-09-03T22:51:48.062Z,16.06
2022-09-03T22:54:26.079Z,16.19
2022-09-03T22:56:54.624Z,16.24
2022-09-03T22:59:27.643Z,16.22
2022-09-03T23:02:03.165Z,16.08
2022-09-03T23:04:44.987Z,15.83
2022-09-03T23:10:12.141Z,15.52
2022-09-03T23:12:46.499Z,15.74
2022-09-03T23:15:21.424Z,15.66
2022-09-03T23:17:58.998Z,15.45
2022-09-03T23:20:31.175Z,15.48
2022-09-03T23:23:06.392Z,15.56
2022-09-03T23:25:41.551Z,15.57
2022-09-03T23:28:14.919Z,15.60
2022-09-03T23:30:42.811Z,15.62
2022-09-03T23:33:17.233Z,15.59
2022-09-03T23:36:08.566Z,15.74
2022-09-03T23:39:02.833Z,15.75
2022-09-03T23:41:47.290Z,15.56
2022-09-03T23:44:33.869Z,15.59
2022-09-03T23:47:12.529Z,15.61
2022-09-03T23:49:51.251Z,15.60
2022-09-03T23:52:40.314Z,15.40
2022-09-03T23:55:17.203Z,15.24
2022-09-03T23:57:58.161Z,15.34
